TimeEDT,TemperatureF,Dew PointF,Humidity,Sea Level PressureIn,VisibilityMPH,Wind Direction,Wind SpeedMPH,Gust SpeedMPH,PrecipitationIn,Events,Conditions,WindDirDegrees,DateUTC
12:53 AM,30.9,28.0,89,30.00,5.0,West,8.1,-,0.00,Snow,Light Snow,270,2013-03-26 04:53:00
1:53 AM,30.9,28.0,89,30.01,10.0,West,9.2,-,0.00,,Overcast,280,2013-03-26 05:53:00
2:53 AM,30.9,27.0,85,30.01,10.0,West,6.9,-,N/A,,Overcast,280,2013-03-26 06:53:00
3:53 AM,30.9,28.0,89,30.02,7.0,West,6.9,-,0.00,Snow,Light Snow,280,2013-03-26 07:53:00
4:53 AM,30.9,28.0,89,30.03,7.0,WNW,6.9,-,0.00,Snow,Light Snow,290,2013-03-26 08:53:00
5:53 AM,30.9,28.0,89,30.03,7.0,West,6.9,-,0.00,Snow,Light Snow,280,2013-03-26 09:53:00
6:05 AM,30.2,28.4,93,30.00,8.0,West,5.8,-,0.00,Snow,Light Snow,280,2013-03-26 10:05:00
6:20 AM,30.2,28.4,93,30.01,9.0,WNW,6.9,-,0.00,,Overcast,290,2013-03-26 10:20:00
6:53 AM,30.9,28.0,89,30.04,10.0,West,4.6,-,0.00,,Overcast,280,2013-03-26 10:53:00
7:06 AM,30.2,28.4,93,30.02,6.0,West,5.8,-,0.00,Snow,Light Snow,270,2013-03-26 11:06:00
7:14 AM,30.2,28.4,93,30.02,5.0,West,6.9,-,0.00,Snow,Light Snow,280,2013-03-26 11:14:00
7:53 AM,30.9,28.0,89,30.06,4.0,WNW,6.9,-,0.00,Snow,Light Snow,290,2013-03-26 11:53:00
8:21 AM,30.2,28.4,93,30.04,8.0,WNW,6.9,-,N/A,,Overcast,290,2013-03-26 12:21:00
8:29 AM,30.2,28.4,93,30.04,7.0,WNW,9.2,-,N/A,,Overcast,290,2013-03-26 12:29:00
8:38 AM,30.2,28.4,93,30.05,8.0,WNW,9.2,-,N/A,,Overcast,290,2013-03-26 12:38:00
8:53 AM,30.9,28.0,89,30.09,7.0,WNW,10.4,-,0.00,,Overcast,300,2013-03-26 12:53:00
9:50 AM,32.0,28.4,87,30.08,7.0,WNW,5.8,-,0.00,Snow,Light Snow,300,2013-03-26 13:50:00
9:53 AM,32.0,28.0,85,30.11,8.0,WNW,6.9,-,0.00,,Overcast,300,2013-03-26 13:53:00
10:53 AM,32.0,28.0,85,30.14,10.0,WNW,9.2,-,0.00,,Overcast,290,2013-03-26 14:53:00
11:53 AM,33.1,27.0,78,30.15,10.0,WNW,10.4,-,0.01,,Overcast,300,2013-03-26 15:53:00
12:43 PM,33.8,28.4,81,30.14,10.0,NW,12.7,18.4,N/A,,Overcast,310,2013-03-26 16:43:00
12:53 PM,34.0,28.0,79,30.17,10.0,NW,10.4,-,N/A,,Overcast,310,2013-03-26 16:53:00
1:53 PM,33.1,28.0,82,30.17,10.0,West,10.4,16.1,N/A,,Overcast,280,2013-03-26 17:53:00
2:53 PM,35.1,28.9,78,30.18,10.0,NW,13.8,20.7,N/A,,Overcast,310,2013-03-26 18:53:00
3:53 PM,36.0,28.9,76,30.18,10.0,WNW,9.2,-,N/A,,Overcast,290,2013-03-26 19:53:00
4:02 PM,35.6,28.4,75,30.15,10.0,WNW,11.5,-,N/A,,Overcast,290,2013-03-26 20:02:00
4:48 PM,35.6,28.4,75,30.16,9.0,NNW,10.4,-,0.00,Snow,Light Snow,330,2013-03-26 20:48:00
4:53 PM,36.0,28.0,73,30.18,9.0,NW,8.1,-,0.00,,Overcast,310,2013-03-26 20:53:00
5:01 PM,37.4,28.4,70,30.16,10.0,NW,5.8,-,N/A,,Overcast,310,2013-03-26 21:01:00
5:53 PM,37.0,26.1,65,30.18,10.0,NW,11.5,-,N/A,,Overcast,310,2013-03-26 21:53:00
6:43 PM,33.8,28.4,81,30.18,1.8,West,13.8,-,0.00,Snow,Light Snow,280,2013-03-26 22:43:00
6:50 PM,33.8,30.2,87,30.19,1.0,WNW,8.1,-,0.00,Snow,Light Snow,290,2013-03-26 22:50:00
6:53 PM,33.1,30.9,92,30.22,1.2,West,8.1,-,0.00,Snow,Light Snow,280,2013-03-26 22:53:00
6:58 PM,33.8,30.2,87,30.19,3.0,West,6.9,-,0.00,Snow,Light Snow,270,2013-03-26 22:58:00
7:53 PM,34.0,28.9,82,30.23,10.0,West,5.8,-,0.00,,Overcast,270,2013-03-26 23:53:00
8:18 PM,33.8,28.4,81,30.22,2.5,WNW,9.2,-,0.01,Snow,Light Snow,300,2013-03-27 00:18:00
8:24 PM,33.8,30.2,87,30.22,1.8,WNW,9.2,-,0.01,Snow,Light Snow,290,2013-03-27 00:24:00
8:28 PM,33.8,28.4,81,30.22,3.0,WNW,6.9,-,0.01,Snow,Light Snow,290,2013-03-27 00:28:00
8:53 PM,32.0,30.0,92,30.25,5.0,West,5.8,-,0.01,Snow,Light Snow,280,2013-03-27 00:53:00
9:53 PM,32.0,30.0,92,30.27,10.0,West,5.8,-,0.00,,Overcast,270,2013-03-27 01:53:00
10:53 PM,32.0,28.9,88,30.29,10.0,West,4.6,-,N/A,,Overcast,270,2013-03-27 02:53:00
11:53 PM,32.0,28.9,88,30.29,10.0,West,3.5,-,N/A,,Overcast,270,2013-03-27 03:53:00